createdAt,value
2022-12-22T00:02:21.247Z,95338.44
2022-12-22T00:05:07.739Z,95345.97
2022-12-22T00:07:53.333Z,95331.50
2022-12-22T00:10:38.968Z,95327.31
2022-12-22T00:13:24.551Z,95339.69
2022-12-22T00:16:10.479Z,95340.28
2022-12-22T00:18:55.838Z,95333.06
2022-12-22T00:21:42.542Z,95346.66
2022-12-22T00:24:28.207Z,95345.81
2022-12-22T00:27:13.881Z,95342.53
2022-12-22T00:30:01.812Z,95343.38
2022-12-22T00:32:52.360Z,95337.81
2022-12-22T00:35:41.085Z,95339.44
2022-12-22T00:38:34.606Z,95337.63
2022-12-22T00:41:20.115Z,95332.88
2022-12-22T00:44:05.812Z,95341.09
2022-12-22T00:46:54.044Z,95330.13
2022-12-22T00:49:40.659Z,95326.59
2022-12-22T00:52:26.121Z,95316.78
2022-12-22T00:55:12.842Z,95334.13
2022-12-22T00:57:59.831Z,95326.34
2022-12-22T01:00:45.664Z,95322.91
2022-12-22T01:03:31.283Z,95305.66
2022-12-22T01:06:21.150Z,95294.91
2022-12-22T01:09:06.750Z,95320.63
2022-12-22T01:11:53.986Z,95317.50
2022-12-22T01:14:39.668Z,95313.34
2022-12-22T01:17:25.194Z,95302.44
2022-12-22T01:20:10.240Z,95307.53
2022-12-22T01:22:55.835Z,95289.25
2022-12-22T01:25:41.771Z,95295.97
2022-12-22T01:28:33.983Z,95298.50
2022-12-22T01:31:49.893Z,95292.91
2022-12-22T01:34:35.993Z,95302.41
2022-12-22T01:37:21.356Z,95294.28
2022-12-22T01:40:06.481Z,95292.88
2022-12-22T01:42:53.135Z,95300.25
2022-12-22T01:45:45.188Z,95300.41
2022-12-22T01:48:35.937Z,95293.03
2022-12-22T01:51:25.494Z,95297.47
2022-12-22T01:54:11.785Z,95300.22
2022-12-22T01:56:58.189Z,95303.88
2022-12-22T01:59:44.242Z,95316.59
2022-12-22T02:02:30.846Z,95310.72
2022-12-22T02:05:19.513Z,95305.09
2022-12-22T02:08:17.156Z,95303.25
2022-12-22T02:11:21.264Z,95305.16
2022-12-22T02:14:47.357Z,95298.53
2022-12-22T03:34:01.888Z,95280.19
2022-12-22T03:36:28.734Z,95285.94
2022-12-22T03:38:55.582Z,95287.84
2022-12-22T03:41:41.024Z,95298.53
2022-12-22T03:44:26.473Z,95293.38
2022-12-22T03:46:53.517Z,95300.69
2022-12-22T03:49:22.543Z,95288.16
2022-12-22T03:51:51.546Z,95294.59
2022-12-22T06:33:57.932Z,95263.56
2022-12-22T06:36:24.934Z,95309.56
2022-12-22T06:38:51.764Z,95298.06
2022-12-22T06:41:38.549Z,95300.66
2022-12-22T06:44:05.702Z,95311.94
2022-12-22T06:46:33.000Z,95313.41
2022-12-22T06:48:59.914Z,95309.97
2022-12-22T06:51:26.718Z,95302.38
2022-12-22T06:53:53.548Z,95307.16
2022-12-22T06:56:20.556Z,95307.81
2022-12-22T06:58:47.477Z,95308.75
2022-12-22T07:01:14.334Z,95316.22
2022-12-22T07:28:24.287Z,95305.56
2022-12-22T07:30:51.711Z,95297.34
2022-12-22T07:33:19.028Z,95305.69
2022-12-22T07:35:46.168Z,95305.19
2022-12-22T07:38:13.554Z,95296.50
2022-12-22T07:40:42.615Z,95299.56
2022-12-22T07:43:10.484Z,95296.13
2022-12-22T07:45:37.327Z,95304.69
2022-12-22T07:48:25.665Z,95312.84
2022-12-22T07:50:52.600Z,95310.09
2022-12-22T07:53:19.420Z,95303.44
2022-12-22T07:55:46.339Z,95305.84
2022-12-22T07:58:13.200Z,95299.84
2022-12-22T08:00:40.089Z,95304.19
2022-12-22T08:03:07.044Z,95293.97
2022-12-22T08:05:34.024Z,95290.59
2022-12-22T08:08:00.952Z,95302.88
2022-12-22T08:10:27.808Z,95287.53
2022-12-22T08:12:55.136Z,95287.31
2022-12-22T08:15:22.015Z,95293.09
2022-12-22T08:17:48.803Z,95284.09
2022-12-22T08:20:15.780Z,95277.31
2022-12-22T08:22:42.590Z,95279.97
2022-12-22T08:25:09.598Z,95289.38
2022-12-22T08:27:44.223Z,95292.19
2022-12-22T08:30:12.571Z,95283.31
2022-12-22T08:32:41.371Z,95293.56
2022-12-22T08:35:10.634Z,95286.22
2022-12-22T08:37:43.164Z,95293.47
2022-12-22T08:40:25.742Z,95277.47
2022-12-22T08:42:57.059Z,95262.34
2022-12-22T08:45:23.828Z,95256.72
2022-12-22T08:47:50.702Z,95265.22
2022-12-22T08:50:17.586Z,95265.34
2022-12-22T08:52:44.572Z,95259.06
2022-12-22T08:55:11.568Z,95263.22
2022-12-22T08:57:38.450Z,95257.00
2022-12-22T09:00:08.732Z,95267.16
2022-12-22T09:02:36.717Z,95245.88
2022-12-22T09:05:03.816Z,95243.16
2022-12-22T09:07:30.829Z,95249.53
2022-12-22T09:09:58.746Z,95239.75
2022-12-22T09:12:25.613Z,95236.25
2022-12-22T09:14:52.516Z,95237.88
2022-12-22T09:17:19.497Z,95216.69
2022-12-22T09:19:46.356Z,95219.47
2022-12-22T09:22:13.246Z,95229.72
2022-12-22T09:24:40.143Z,95221.66
2022-12-22T09:27:09.298Z,95216.28
2022-12-22T09:29:40.147Z,95214.59
2022-12-22T09:32:07.213Z,95218.19
2022-12-22T09:34:34.483Z,95220.19
2022-12-22T09:37:01.588Z,95219.38
2022-12-22T09:39:29.410Z,95220.66
2022-12-22T09:41:58.071Z,95207.47
2022-12-22T09:44:31.499Z,95215.00
2022-12-22T09:47:01.887Z,95211.66
2022-12-22T09:49:29.268Z,95209.78
2022-12-22T09:52:02.740Z,95205.09
2022-12-22T09:54:30.893Z,95209.25
2022-12-22T09:56:58.380Z,95200.16
2022-12-22T09:59:29.160Z,95192.44
2022-12-22T10:02:28.655Z,95186.66
2022-12-22T10:05:51.486Z,95182.38
2022-12-22T10:08:29.335Z,95172.31
2022-12-22T10:10:56.914Z,95171.91
2022-12-22T10:13:23.756Z,95160.69
2022-12-22T10:15:52.189Z,95164.38
2022-12-22T10:18:22.014Z,95148.19
2022-12-22T10:21:10.865Z,95152.94
2022-12-22T10:23:41.459Z,95143.69
2022-12-22T10:26:29.527Z,95141.09
2022-12-22T10:29:01.590Z,95136.66
2022-12-22T10:31:31.207Z,95135.72
2022-12-22T10:34:14.551Z,95126.06
2022-12-22T10:36:52.455Z,95121.47
2022-12-22T10:39:22.516Z,95120.38
2022-12-22T10:41:51.764Z,95118.34
2022-12-22T10:44:25.922Z,95109.53
2022-12-22T10:46:58.494Z,95112.03
2022-12-22T10:52:29.517Z,95104.13
2022-12-22T10:55:36.077Z,95096.09
2022-12-22T10:58:16.855Z,95101.56
2022-12-22T11:00:45.233Z,95092.28
2022-12-22T11:03:19.080Z,95089.97
2022-12-22T11:05:51.880Z,95087.47
2022-12-22T11:08:20.384Z,95076.22
2022-12-22T11:10:53.710Z,95077.84
2022-12-22T11:13:38.962Z,95083.44
2022-12-22T11:16:37.701Z,95085.06
2022-12-22T11:19:40.023Z,95073.03
2022-12-22T11:22:33.924Z,95073.50
2022-12-22T11:25:16.055Z,95066.25
2022-12-22T11:27:57.974Z,95071.66
2022-12-22T11:30:51.111Z,95069.41
2022-12-22T11:33:40.264Z,95059.66
2022-12-22T11:36:15.090Z,95066.03
2022-12-22T11:39:00.506Z,95057.47
2022-12-22T11:41:51.891Z,95052.78
2022-12-22T11:44:37.247Z,95053.50
2022-12-22T11:47:12.510Z,95048.81
2022-12-22T11:50:57.787Z,95044.63
2022-12-22T11:53:07.583Z,95047.84
2022-12-22T11:55:43.530Z,95042.03
2022-12-22T11:58:41.268Z,95039.91
2022-12-22T12:01:45.712Z,95041.06
2022-12-22T12:04:42.337Z,95039.44
2022-12-22T12:07:25.657Z,95035.22
2022-12-22T12:10:02.305Z,95027.50
2022-12-22T12:12:35.253Z,95023.75
2022-12-22T12:15:11.125Z,95018.09
2022-12-22T12:18:02.538Z,95015.50
2022-12-22T12:20:35.161Z,95017.88
2022-12-22T12:23:14.100Z,95010.53
2022-12-22T12:25:44.827Z,95017.88
2022-12-22T12:28:35.946Z,95010.38
2022-12-22T12:31:05.172Z,95007.16
2022-12-22T12:33:54.682Z,95008.13
2022-12-22T12:36:28.881Z,95009.81
2022-12-22T12:39:14.031Z,95004.91
2022-12-22T12:42:03.977Z,95009.09
2022-12-22T12:44:36.466Z,95005.13
2022-12-22T12:47:25.876Z,94993.56
2022-12-22T12:50:02.775Z,94991.44
2022-12-22T12:52:43.674Z,95006.56
2022-12-22T12:55:32.673Z,94995.53
2022-12-22T12:58:02.559Z,94997.59
2022-12-22T13:00:33.006Z,94987.19
2022-12-22T13:03:25.312Z,94993.53
2022-12-22T13:06:02.144Z,95000.28
2022-12-22T13:08:53.302Z,94996.72
2022-12-22T13:12:11.162Z,94998.50
2022-12-22T13:14:56.587Z,94995.44
2022-12-22T13:17:38.662Z,94998.34
2022-12-22T13:20:12.019Z,94989.41
2022-12-22T13:22:42.094Z,94994.38
2022-12-22T13:25:15.640Z,94987.53
2022-12-22T13:27:43.371Z,94983.66
2022-12-22T13:30:17.575Z,94990.63
2022-12-22T13:32:48.218Z,94991.31
2022-12-22T13:35:35.554Z,94994.09
2022-12-22T13:38:04.756Z,94987.00
2022-12-22T13:40:40.490Z,94985.25
2022-12-22T13:43:15.478Z,94991.03
2022-12-22T13:45:48.173Z,94987.84
2022-12-22T13:48:45.225Z,94983.06
2022-12-22T13:51:20.215Z,94983.84
2022-12-22T13:54:08.970Z,94982.72
2022-12-22T13:56:48.706Z,94974.31
2022-12-22T13:59:31.937Z,94984.03
2022-12-22T14:02:12.055Z,94984.53
2022-12-22T14:04:42.087Z,94982.16
2022-12-22T14:07:18.667Z,94972.91
2022-12-22T14:09:50.633Z,94974.47
2022-12-22T14:12:31.834Z,94971.31
2022-12-22T14:15:01.419Z,94969.72
2022-12-22T14:17:34.640Z,94972.16
2022-12-22T14:20:17.044Z,94978.50
2022-12-22T14:22:53.239Z,94969.81
2022-12-22T14:25:23.866Z,94974.06
2022-12-22T14:27:53.309Z,94976.84
2022-12-22T14:30:41.704Z,94977.56
2022-12-22T14:33:30.252Z,94973.56
2022-12-22T14:36:18.532Z,94979.16
2022-12-22T14:38:56.790Z,94982.88
2022-12-22T14:41:41.433Z,94964.91
2022-12-22T14:44:28.368Z,94980.22
2022-12-22T14:47:15.219Z,94979.97
2022-12-22T14:49:52.929Z,94984.84
2022-12-22T14:52:37.759Z,94985.53
2022-12-22T14:55:07.520Z,94980.78
2022-12-22T14:57:41.109Z,94994.91
2022-12-22T15:00:28.656Z,94990.19
2022-12-22T15:03:02.084Z,94992.34
2022-12-22T15:05:39.125Z,94987.75
2022-12-22T15:08:09.340Z,94990.75
2022-12-22T15:10:45.730Z,94992.25
2022-12-22T15:13:20.590Z,94996.47
2022-12-22T15:15:47.456Z,94985.06
2022-12-22T15:18:15.702Z,94987.13
2022-12-22T15:20:42.627Z,94994.69
2022-12-22T15:23:14.885Z,94993.75
2022-12-22T15:25:41.722Z,94994.69
2022-12-22T15:28:09.154Z,94999.41
2022-12-22T15:30:36.277Z,94997.66
2022-12-22T15:33:03.522Z,95000.75
2022-12-22T15:35:35.296Z,95003.31
2022-12-22T15:38:02.314Z,95005.63
2022-12-22T15:40:29.530Z,95008.28
2022-12-22T15:42:56.392Z,95000.50
2022-12-22T15:45:23.388Z,95012.09
2022-12-22T15:47:53.441Z,95023.00
2022-12-22T15:50:23.581Z,95024.47
2022-12-22T15:52:53.782Z,95002.69
2022-12-22T15:55:21.278Z,95019.69
2022-12-22T15:57:51.781Z,95019.06
2022-12-22T16:00:19.745Z,95019.84
2022-12-22T16:02:47.330Z,95018.47
2022-12-22T16:05:15.396Z,95018.16
2022-12-22T16:07:44.240Z,95008.09
2022-12-22T16:10:27.345Z,95031.28
2022-12-22T16:13:00.553Z,95022.19
2022-12-22T16:15:32.860Z,95036.47
2022-12-22T16:18:04.580Z,95027.97
2022-12-22T16:20:37.946Z,95034.44
2022-12-22T16:23:08.097Z,95032.34
2022-12-22T16:25:37.737Z,95034.56
2022-12-22T16:28:06.341Z,95030.31
2022-12-22T16:30:34.817Z,95041.16
2022-12-22T16:33:01.767Z,95036.06
2022-12-22T16:35:30.585Z,95032.00
2022-12-22T16:37:59.244Z,95035.38
2022-12-22T16:40:27.709Z,95030.03
2022-12-22T16:45:44.445Z,95026.09
2022-12-22T16:48:21.468Z,95024.34
2022-12-22T16:50:48.786Z,95022.94
2022-12-22T16:53:15.766Z,95026.66
2022-12-22T16:55:43.278Z,95031.91
2022-12-22T16:58:13.832Z,95024.78
2022-12-22T17:00:44.195Z,95028.31
2022-12-22T17:03:22.904Z,95024.22
2022-12-22T17:05:53.536Z,95021.09
2022-12-22T17:08:33.624Z,95021.91
2022-12-22T17:11:10.070Z,95025.97
2022-12-22T17:13:37.992Z,95025.38
2022-12-22T17:16:23.331Z,95026.78
2022-12-22T17:18:50.388Z,95031.19
2022-12-22T17:21:19.470Z,95038.06
2022-12-22T17:23:50.190Z,95029.09
2022-12-22T17:26:21.165Z,95039.22
2022-12-22T17:28:50.054Z,95041.66
2022-12-22T17:31:20.176Z,95046.16
2022-12-22T17:33:47.951Z,95039.97
2022-12-22T17:36:29.489Z,95040.31
2022-12-22T17:38:56.909Z,95037.53
2022-12-22T17:41:24.509Z,95039.59
2022-12-22T17:43:51.355Z,95039.09
2022-12-22T17:46:20.083Z,95038.66
2022-12-22T17:48:47.885Z,95036.63
2022-12-22T17:51:22.974Z,95032.78
2022-12-22T17:53:50.182Z,95036.00
2022-12-22T17:56:19.404Z,95039.81
2022-12-22T17:58:46.728Z,95034.22
2022-12-22T18:01:28.958Z,95031.19
2022-12-22T18:03:57.954Z,95039.00
2022-12-22T18:06:33.539Z,95037.25
2022-12-22T18:09:00.820Z,95029.50
2022-12-22T18:11:31.470Z,95025.53
2022-12-22T18:13:59.854Z,95028.31
2022-12-22T18:16:26.752Z,95034.06
2022-12-22T18:18:53.820Z,95028.47
2022-12-22T18:21:24.022Z,95033.78
2022-12-22T18:23:52.132Z,95035.66
2022-12-22T18:26:27.185Z,95035.47
2022-12-22T18:28:54.892Z,95039.56
2022-12-22T18:31:22.883Z,95033.03
2022-12-22T18:33:50.032Z,95035.28
2022-12-22T18:36:29.891Z,95040.97
2022-12-22T18:38:57.954Z,95046.28
2022-12-22T18:41:26.871Z,95047.53
2022-12-22T18:43:54.004Z,95042.63
2022-12-22T18:46:21.352Z,95048.66
2022-12-22T18:48:48.835Z,95040.78
2022-12-22T18:51:22.331Z,95051.81
2022-12-22T18:53:50.879Z,95048.56
2022-12-22T18:56:18.449Z,95048.34
2022-12-22T18:58:46.362Z,95052.03
2022-12-22T19:01:18.607Z,95045.09
2022-12-22T19:03:45.789Z,95043.44
2022-12-22T19:06:16.175Z,95034.88
2022-12-22T19:08:46.005Z,95048.34
2022-12-22T19:11:14.085Z,95050.13
2022-12-22T19:13:44.671Z,95058.84
2022-12-22T19:16:18.605Z,95059.28
2022-12-22T19:18:45.722Z,95055.84
2022-12-22T19:21:17.705Z,95037.50
2022-12-22T19:23:45.090Z,95072.66
2022-12-22T19:26:24.452Z,95063.59
2022-12-22T19:28:54.419Z,95068.78
2022-12-22T19:31:25.788Z,95056.38
2022-12-22T19:33:55.906Z,95056.66
2022-12-22T19:36:26.949Z,95063.38
2022-12-22T19:39:03.496Z,95060.13
2022-12-22T19:41:50.342Z,95056.66
2022-12-22T19:44:29.098Z,95058.72
2022-12-22T19:47:02.065Z,95055.75
2022-12-22T19:49:32.813Z,95063.72
2022-12-22T19:51:59.692Z,95066.56
2022-12-22T19:54:28.218Z,95067.69
2022-12-22T19:56:56.318Z,95066.06
2022-12-22T19:59:40.156Z,95063.72
2022-12-22T20:02:30.499Z,95060.44
2022-12-22T20:04:59.217Z,95058.00
2022-12-22T20:07:27.825Z,95064.84
2022-12-22T20:09:54.752Z,95071.56
2022-12-22T20:12:29.827Z,95076.25
2022-12-22T20:14:57.125Z,95074.19
2022-12-22T20:17:24.061Z,95081.75
2022-12-22T20:19:51.129Z,95084.91
2022-12-22T20:22:21.479Z,95083.38
2022-12-22T20:24:50.042Z,95075.84
2022-12-22T20:27:45.380Z,95078.38
2022-12-22T20:30:21.589Z,95079.09
2022-12-22T20:32:49.123Z,95078.28
2022-12-22T20:35:16.712Z,95075.84
2022-12-22T20:37:43.556Z,95074.81
2022-12-22T20:40:31.203Z,95076.84
2022-12-22T20:42:59.962Z,95081.34
2022-12-22T20:45:32.028Z,95071.75
2022-12-22T20:48:00.034Z,95078.25
2022-12-22T20:50:29.829Z,95072.34
2022-12-22T20:52:57.302Z,95070.72
2022-12-22T20:55:28.009Z,95069.09
2022-12-22T20:57:55.310Z,95055.22
2022-12-22T21:00:27.933Z,95077.44
2022-12-22T21:02:55.464Z,95070.53
2022-12-22T21:05:22.538Z,95070.44
2022-12-22T21:07:49.766Z,95076.56
2022-12-22T21:10:19.078Z,95071.97
2022-12-22T21:12:46.271Z,95068.09
2022-12-22T21:15:20.882Z,95069.53
2022-12-22T21:17:51.472Z,95064.44
2022-12-22T21:20:26.114Z,95075.13
2022-12-22T21:22:54.142Z,95056.28
2022-12-22T21:25:21.272Z,95075.63
2022-12-22T21:27:50.524Z,95076.56
2022-12-22T21:30:25.816Z,95075.44
2022-12-22T21:32:53.157Z,95057.50
2022-12-22T21:35:36.564Z,95063.53
2022-12-22T21:38:03.768Z,95067.69
2022-12-22T21:40:33.280Z,95076.97
2022-12-22T21:42:59.983Z,95083.81
2022-12-22T21:45:30.289Z,95079.44
2022-12-22T21:48:02.546Z,95079.09
2022-12-22T21:50:33.586Z,95074.81
2022-12-22T21:53:03.658Z,95062.59
2022-12-22T21:55:31.899Z,95066.47
2022-12-22T21:57:59.505Z,95067.38
2022-12-22T22:00:29.453Z,95063.00
2022-12-22T22:02:57.013Z,95068.91
2022-12-22T22:05:44.303Z,95065.63
2022-12-22T22:08:13.086Z,95057.06
2022-12-22T22:10:43.116Z,95053.22
2022-12-22T22:13:15.548Z,95044.13
2022-12-22T22:15:43.292Z,95050.84
2022-12-22T22:18:16.477Z,95056.88
2022-12-22T22:20:43.987Z,95059.94
2022-12-22T22:23:15.142Z,95053.72
2022-12-22T22:25:42.080Z,95045.34
2022-12-22T22:28:11.329Z,95040.47
2022-12-22T22:30:40.957Z,95033.53
2022-12-22T22:33:07.854Z,95048.38
2022-12-22T22:35:34.672Z,95038.44
2022-12-22T22:38:01.515Z,95038.53
2022-12-22T22:40:28.448Z,95027.00
2022-12-22T22:42:56.983Z,95023.44
2022-12-22T22:45:24.404Z,95033.53
2022-12-22T22:47:51.975Z,95037.81
2022-12-22T22:50:20.684Z,95023.53
2022-12-22T22:52:48.113Z,95022.63
2022-12-22T22:55:16.968Z,95027.50
2022-12-22T22:57:44.468Z,95024.03
2022-12-22T23:00:14.362Z,95024.44
2022-12-22T23:02:43.310Z,95025.28
2022-12-22T23:05:16.917Z,95012.00
2022-12-22T23:07:47.466Z,95017.53
2022-12-22T23:10:14.475Z,95012.00
2022-12-22T23:12:41.373Z,95022.78
2022-12-22T23:15:08.697Z,95005.03
2022-12-22T23:17:36.711Z,95011.09
2022-12-22T23:20:03.901Z,95000.91
2022-12-22T23:22:31.898Z,95000.66
2022-12-22T23:24:58.760Z,94999.38
2022-12-22T23:27:25.620Z,94986.53
2022-12-22T23:29:52.497Z,94974.09
2022-12-22T23:32:19.376Z,94979.06
2022-12-22T23:34:47.970Z,94981.13
2022-12-22T23:37:19.291Z,94972.50
2022-12-22T23:39:47.094Z,94980.63
2022-12-22T23:42:13.963Z,94972.91
2022-12-22T23:44:40.839Z,94974.53
2022-12-22T23:47:08.023Z,94979.41
2022-12-22T23:49:35.121Z,94975.25
2022-12-22T23:52:02.016Z,94964.13
2022-12-22T23:54:30.574Z,94957.19
2022-12-22T23:56:57.513Z,94969.50
2022-12-22T23:59:24.333Z,94967.16
